createdAt,value
2022-08-17T00:02:27.287Z,75.03
2022-08-17T00:05:33.625Z,75.11
2022-08-17T00:08:42.469Z,75.09
2022-08-17T00:12:34.982Z,75.08
2022-08-17T00:15:10.590Z,74.99
2022-08-17T00:19:01.314Z,74.90
2022-08-17T00:22:29.462Z,74.80
2022-08-17T00:25:08.107Z,74.66
2022-08-17T00:28:12.328Z,74.76
2022-08-17T00:31:15.493Z,74.92
2022-08-17T00:34:19.015Z,75.02
2022-08-17T00:37:22.043Z,75.02
2022-08-17T00:40:25.018Z,74.82
2022-08-17T00:43:35.855Z,74.72
2022-08-17T00:46:41.080Z,74.67
2022-08-17T00:49:43.965Z,74.80
2022-08-17T00:52:54.998Z,74.91
2022-08-17T00:56:01.762Z,74.94
2022-08-17T00:59:07.702Z,74.97
2022-08-17T01:02:14.725Z,75.03
2022-08-17T01:05:25.560Z,75.01
2022-08-17T01:08:30.629Z,74.99
2022-08-17T01:11:36.228Z,74.92
2022-08-17T01:14:40.548Z,74.76
2022-08-17T01:17:45.259Z,74.68
2022-08-17T01:20:53.687Z,74.76
2022-08-17T01:23:57.054Z,74.85
2022-08-17T01:27:00.780Z,74.87
2022-08-17T01:30:58.839Z,74.88
2022-08-17T01:33:32.496Z,74.99
2022-08-17T01:36:37.669Z,74.99
2022-08-17T01:39:45.840Z,75.00
2022-08-17T01:42:56.026Z,75.08
2022-08-17T01:46:02.424Z,74.94
2022-08-17T01:49:08.397Z,74.80
2022-08-17T01:52:12.267Z,74.68
2022-08-17T01:55:25.889Z,74.69
2022-08-17T01:58:32.271Z,74.83
2022-08-17T02:01:36.105Z,74.93
2022-08-17T02:04:39.065Z,74.97
2022-08-17T02:07:47.992Z,75.06
2022-08-17T02:11:06.201Z,75.13
2022-08-17T02:14:14.602Z,75.17
2022-08-17T02:17:17.531Z,75.16
2022-08-17T02:20:41.724Z,75.21
2022-08-17T02:23:47.756Z,75.32
2022-08-17T02:26:50.693Z,75.11
2022-08-17T02:29:53.613Z,74.88
2022-08-17T02:32:56.577Z,74.71
2022-08-17T02:35:59.744Z,74.66
2022-08-17T02:39:05.809Z,74.62
2022-08-17T02:42:08.825Z,74.67
2022-08-17T02:45:18.199Z,74.66
2022-08-17T02:48:28.157Z,74.66
2022-08-17T02:51:35.338Z,74.56
2022-08-17T02:54:41.442Z,74.61
2022-08-17T02:57:45.579Z,74.88
2022-08-17T03:00:48.747Z,75.12
2022-08-17T03:03:51.686Z,75.30
2022-08-17T03:06:54.585Z,75.37
2022-08-17T03:09:57.486Z,75.43
2022-08-17T03:13:00.570Z,75.48
2022-08-17T03:16:03.648Z,75.43
2022-08-17T03:19:06.506Z,75.32
2022-08-17T03:22:36.085Z,75.26
2022-08-17T03:25:36.725Z,75.31
2022-08-17T03:28:41.594Z,75.39
2022-08-17T03:31:46.927Z,75.34
2022-08-17T03:34:49.875Z,75.29
2022-08-17T03:38:00.531Z,75.11
2022-08-17T03:41:06.079Z,74.86
2022-08-17T03:44:09.163Z,74.73
2022-08-17T03:47:30.471Z,74.66
2022-08-17T03:50:51.817Z,74.72
2022-08-17T03:54:16.662Z,74.88
2022-08-17T03:57:19.869Z,75.04
2022-08-17T04:00:22.790Z,75.17
2022-08-17T04:03:25.653Z,75.27
2022-08-17T04:06:28.782Z,75.42
2022-08-17T04:09:31.647Z,75.50
2022-08-17T04:12:47.894Z,75.59
2022-08-17T04:15:50.829Z,75.67
2022-08-17T04:18:53.787Z,75.62
2022-08-17T04:21:57.924Z,75.65
2022-08-17T04:25:15.987Z,75.74
2022-08-17T04:28:19.891Z,75.80
2022-08-17T04:31:22.982Z,75.86
2022-08-17T04:34:25.954Z,76.00
2022-08-17T04:37:28.844Z,76.00
2022-08-17T04:40:50.585Z,76.08
2022-08-17T04:43:58.502Z,76.21
2022-08-17T04:47:01.439Z,76.29
2022-08-17T04:50:04.625Z,76.44
2022-08-17T04:53:07.561Z,76.62
2022-08-17T04:56:16.899Z,76.75
2022-08-17T04:59:22.762Z,76.95
2022-08-17T05:02:25.657Z,77.06
2022-08-17T05:05:32.137Z,77.24
2022-08-17T05:08:35.283Z,77.44
2022-08-17T05:11:38.429Z,77.78
2022-08-17T05:14:47.992Z,78.01
2022-08-17T05:17:50.836Z,78.24
2022-08-17T05:20:54.012Z,78.41
2022-08-17T05:23:58.627Z,78.63
2022-08-17T05:27:06.461Z,78.97
2022-08-17T05:30:10.126Z,79.01
2022-08-17T05:33:22.561Z,78.96
2022-08-17T05:36:43.306Z,79.00
2022-08-17T05:39:47.332Z,79.29
2022-08-17T05:42:51.103Z,79.43
2022-08-17T05:46:15.359Z,79.44
2022-08-17T05:49:27.327Z,79.63
2022-08-17T05:52:37.639Z,79.77
2022-08-17T05:55:55.740Z,79.95
2022-08-17T05:59:20.043Z,80.23
2022-08-17T06:03:08.326Z,80.37
2022-08-17T06:06:40.841Z,80.50
2022-08-17T06:10:03.051Z,80.39
2022-08-17T06:13:11.985Z,80.16
2022-08-17T06:16:33.019Z,80.11
2022-08-17T06:19:46.324Z,80.01
2022-08-17T06:22:55.865Z,80.01
2022-08-17T06:26:11.946Z,80.00
2022-08-17T06:29:19.339Z,79.95
2022-08-17T06:36:37.667Z,79.55
2022-08-17T06:39:52.787Z,79.30
2022-08-17T06:43:20.516Z,79.05
2022-08-17T06:46:49.032Z,78.97
2022-08-17T06:50:05.568Z,78.87
2022-08-17T06:53:17.736Z,78.72
2022-08-17T06:56:53.013Z,78.57
2022-08-17T07:00:08.969Z,78.66
2022-08-17T07:03:16.536Z,78.35
2022-08-17T07:06:28.101Z,78.10
2022-08-17T07:09:37.389Z,77.97
2022-08-17T07:12:43.404Z,77.69
2022-08-17T07:15:51.806Z,77.51
2022-08-17T07:18:59.541Z,77.20
2022-08-17T07:22:18.099Z,77.02
2022-08-17T07:25:21.758Z,76.19
2022-08-17T07:28:26.396Z,76.28
2022-08-17T07:31:31.667Z,76.01
2022-08-17T07:35:13.055Z,75.34
2022-08-17T07:38:26.995Z,74.93
2022-08-17T07:41:58.103Z,74.48
2022-08-17T07:45:23.088Z,74.69
2022-08-17T07:48:27.239Z,74.31
2022-08-17T07:51:33.537Z,74.50
2022-08-17T07:54:46.777Z,74.13
2022-08-17T07:58:03.660Z,73.74
2022-08-17T08:01:15.480Z,73.76
2022-08-17T08:08:01.688Z,71.94
2022-08-17T08:11:28.452Z,71.85
2022-08-17T08:14:38.392Z,72.03
2022-08-17T08:17:50.656Z,71.17
2022-08-17T08:20:59.448Z,69.89
2022-08-17T08:24:59.080Z,69.42
2022-08-17T08:28:38.430Z,68.32
2022-08-17T08:32:21.961Z,68.22
2022-08-17T08:35:32.071Z,67.88
2022-08-17T08:38:50.103Z,66.92
2022-08-17T08:42:18.444Z,67.37
2022-08-17T08:45:34.173Z,67.65
2022-08-17T08:49:17.074Z,68.09
2022-08-17T08:52:48.218Z,67.14
2022-08-17T08:55:56.923Z,66.21
2022-08-17T08:59:26.183Z,66.49
2022-08-17T09:02:38.290Z,67.45
2022-08-17T09:05:56.668Z,67.61
2022-08-17T09:09:02.938Z,66.54
2022-08-17T09:12:18.972Z,65.68
2022-08-17T09:15:29.855Z,64.54
2022-08-17T09:19:03.367Z,64.50
2022-08-17T09:22:12.236Z,64.03
2022-08-17T09:25:44.276Z,64.84
2022-08-17T09:28:51.328Z,62.47
2022-08-17T09:32:01.735Z,62.63
2022-08-17T09:35:14.562Z,62.72
2022-08-17T09:38:36.285Z,61.55
2022-08-17T09:42:10.344Z,60.02
2022-08-17T09:45:17.041Z,60.17
2022-08-17T09:48:46.281Z,60.09
2022-08-17T09:51:55.588Z,59.89
2022-08-17T09:55:01.065Z,60.52
2022-08-17T09:58:28.989Z,61.54
2022-08-17T10:01:43.207Z,63.24
2022-08-17T10:04:58.266Z,59.90
2022-08-17T10:08:08.684Z,61.22
2022-08-17T10:11:17.505Z,61.28
2022-08-17T10:14:37.457Z,60.87
2022-08-17T10:18:08.711Z,60.39
2022-08-17T10:21:33.772Z,58.72
2022-08-17T10:25:21.761Z,59.04
2022-08-17T10:28:29.744Z,58.96
2022-08-17T10:31:46.505Z,58.14
2022-08-17T10:35:16.742Z,57.80
2022-08-17T10:38:30.127Z,58.19
2022-08-17T10:41:45.369Z,58.36
2022-08-17T10:45:00.544Z,58.37
2022-08-17T10:48:07.262Z,59.73
2022-08-17T10:51:38.090Z,61.30
2022-08-17T10:54:51.903Z,61.51
2022-08-17T10:58:22.094Z,62.04
2022-08-17T11:01:34.319Z,61.69
2022-08-17T11:04:44.109Z,61.62
2022-08-17T11:08:05.593Z,61.42
2022-08-17T11:11:20.405Z,60.51
2022-08-17T11:14:36.394Z,59.20
2022-08-17T11:17:58.467Z,58.49
2022-08-17T11:21:20.540Z,56.00
2022-08-17T11:24:43.415Z,55.76
2022-08-17T11:28:04.431Z,54.96
2022-08-17T11:31:38.323Z,55.64
2022-08-17T11:34:44.650Z,56.02
2022-08-17T11:38:06.384Z,55.46
2022-08-17T11:41:32.293Z,55.08
2022-08-17T11:44:56.437Z,55.05
2022-08-17T11:48:32.432Z,54.31
2022-08-17T11:52:05.131Z,53.15
2022-08-17T11:55:37.471Z,51.10
2022-08-17T11:58:45.060Z,52.39
2022-08-17T12:01:55.835Z,51.67
2022-08-17T12:05:26.153Z,52.31
2022-08-17T12:08:32.701Z,52.50
2022-08-17T12:11:58.616Z,51.43
2022-08-17T12:15:12.569Z,48.65
2022-08-17T12:18:41.764Z,49.15
2022-08-17T12:21:57.761Z,49.37
2022-08-17T12:25:10.340Z,49.61
2022-08-17T12:28:44.146Z,50.66
2022-08-17T12:31:49.980Z,51.68
2022-08-17T12:34:53.976Z,50.79
2022-08-17T12:37:58.015Z,50.67
2022-08-17T12:41:22.464Z,52.35
2022-08-17T12:44:34.604Z,50.22
2022-08-17T12:47:38.545Z,50.84
2022-08-17T12:50:45.942Z,50.44
2022-08-17T12:53:54.887Z,51.36
2022-08-17T12:57:04.829Z,50.47
2022-08-17T13:00:16.304Z,50.06
2022-08-17T13:03:21.806Z,50.99
2022-08-17T13:06:34.637Z,51.30
2022-08-17T13:09:40.309Z,51.44
2022-08-17T13:12:43.527Z,51.68
2022-08-17T13:15:58.666Z,53.60
2022-08-17T13:19:13.070Z,53.59
2022-08-17T13:22:16.733Z,51.29
2022-08-17T13:25:19.735Z,53.16
2022-08-17T13:28:30.639Z,53.66
2022-08-17T13:31:51.821Z,53.43
2022-08-17T13:35:14.397Z,54.07
2022-08-17T13:38:41.127Z,54.48
2022-08-17T13:41:44.675Z,54.41
2022-08-17T13:44:47.543Z,55.56
2022-08-17T13:48:23.914Z,56.15
2022-08-17T13:51:30.052Z,55.74
2022-08-17T13:54:36.173Z,55.52
2022-08-17T13:57:46.955Z,55.48
2022-08-17T14:00:51.699Z,55.64
2022-08-17T14:03:55.275Z,55.95
2022-08-17T14:07:01.319Z,55.51
2022-08-17T14:10:07.379Z,56.38
2022-08-17T14:13:10.259Z,54.24
2022-08-17T14:16:13.484Z,54.63
2022-08-17T14:19:16.718Z,54.61
2022-08-17T14:22:27.042Z,54.43
2022-08-17T14:25:30.137Z,53.59
2022-08-17T14:28:33.130Z,53.14
2022-08-17T14:31:39.306Z,53.36
2022-08-17T14:34:42.948Z,53.27
2022-08-17T14:37:45.981Z,50.86
2022-08-17T14:40:49.309Z,52.33
2022-08-17T14:43:56.250Z,52.72
2022-08-17T14:46:59.235Z,52.63
2022-08-17T14:50:04.674Z,52.47
2022-08-17T14:53:14.320Z,52.22
2022-08-17T14:56:17.482Z,52.00
2022-08-17T14:59:20.333Z,51.54
2022-08-17T15:02:30.188Z,51.60
2022-08-17T15:05:46.390Z,51.44
2022-08-17T15:08:50.347Z,51.41
2022-08-17T15:11:54.015Z,52.22
2022-08-17T15:14:57.687Z,51.67
2022-08-17T15:18:01.248Z,51.91
2022-08-17T15:21:06.875Z,52.83
2022-08-17T15:24:09.850Z,53.72
2022-08-17T15:27:13.057Z,54.18
2022-08-17T15:30:16.517Z,53.46
2022-08-17T15:33:24.077Z,53.79
2022-08-17T15:36:27.007Z,53.65
2022-08-17T15:39:30.003Z,54.03
2022-08-17T15:42:34.018Z,54.22
2022-08-17T15:45:37.757Z,54.34
2022-08-17T15:48:42.507Z,54.33
2022-08-17T15:51:46.120Z,54.00
2022-08-17T15:54:58.414Z,54.70
2022-08-17T15:58:01.600Z,54.81
2022-08-17T16:01:14.300Z,55.02
2022-08-17T16:04:28.437Z,54.68
2022-08-17T16:07:38.482Z,55.10
2022-08-17T16:10:41.645Z,55.36
2022-08-17T16:13:47.377Z,56.77
2022-08-17T16:16:59.176Z,56.69
2022-08-17T16:20:02.416Z,57.53
2022-08-17T16:23:05.630Z,57.90
2022-08-17T16:26:09.152Z,58.00
2022-08-17T16:29:13.078Z,58.70
2022-08-17T16:32:31.879Z,58.77
2022-08-17T16:36:37.660Z,58.91
2022-08-17T16:39:41.303Z,58.84
2022-08-17T16:42:46.146Z,59.15
2022-08-17T16:45:52.118Z,59.09
2022-08-17T16:48:57.179Z,59.48
2022-08-17T16:52:03.366Z,59.75
2022-08-17T16:55:09.025Z,60.61
2022-08-17T16:58:12.764Z,61.32
2022-08-17T17:01:15.894Z,61.20
2022-08-17T17:04:19.513Z,61.18
2022-08-17T17:07:44.174Z,61.65
2022-08-17T17:10:51.600Z,61.92
2022-08-17T17:14:01.653Z,62.07
2022-08-17T17:17:25.011Z,62.07
2022-08-17T17:20:35.523Z,62.04
2022-08-17T17:23:46.585Z,61.95
2022-08-17T17:27:07.515Z,62.24
2022-08-17T17:30:34.389Z,62.53
2022-08-17T17:33:43.587Z,62.53
2022-08-17T17:36:54.793Z,62.38
2022-08-17T17:40:02.284Z,62.32
2022-08-17T17:43:34.832Z,62.24
2022-08-17T17:46:40.007Z,62.10
2022-08-17T17:49:45.865Z,62.13
2022-08-17T17:52:59.662Z,62.29
2022-08-17T17:56:43.037Z,62.14
2022-08-17T17:59:59.533Z,62.12
2022-08-17T18:03:40.081Z,62.15
2022-08-17T18:06:57.816Z,62.44
2022-08-17T18:10:19.454Z,62.48
2022-08-17T18:13:50.724Z,62.33
2022-08-17T18:16:57.156Z,62.27
2022-08-17T18:20:00.253Z,62.22
2022-08-17T18:23:04.233Z,62.26
2022-08-17T18:26:07.294Z,62.45
2022-08-17T18:29:31.322Z,62.37
2022-08-17T18:32:36.430Z,62.39
2022-08-17T18:35:39.407Z,62.53
2022-08-17T18:38:43.964Z,62.70
2022-08-17T18:41:52.818Z,62.68
2022-08-17T18:44:56.276Z,62.85
2022-08-17T18:48:27.153Z,63.08
2022-08-17T18:51:50.341Z,63.07
2022-08-17T18:55:12.138Z,63.00
2022-08-17T18:58:17.887Z,62.97
2022-08-17T19:01:21.428Z,62.86
2022-08-17T19:05:02.446Z,62.96
2022-08-17T19:08:17.629Z,63.11
2022-08-17T19:11:31.790Z,63.49
2022-08-17T19:14:35.934Z,63.77
2022-08-17T19:17:52.428Z,63.62
2022-08-17T19:21:04.019Z,63.91
2022-08-17T19:24:13.686Z,64.17
2022-08-17T19:27:26.035Z,64.20
2022-08-17T19:30:37.945Z,64.23
2022-08-17T19:33:47.974Z,64.33
2022-08-17T19:37:00.349Z,64.44
2022-08-17T19:40:03.201Z,64.78
2022-08-17T19:43:21.066Z,64.58
2022-08-17T19:46:43.041Z,64.94
2022-08-17T19:50:47.371Z,64.99
2022-08-17T19:58:40.044Z,65.38
2022-08-17T20:02:58.965Z,65.57
2022-08-17T20:06:13.742Z,65.83
2022-08-17T20:10:13.624Z,65.85
2022-08-17T20:13:33.346Z,65.78
2022-08-17T20:16:39.768Z,65.65
2022-08-17T20:19:48.113Z,66.16
2022-08-17T20:23:04.169Z,66.31
2022-08-17T20:26:19.987Z,66.55
2022-08-17T20:29:39.870Z,66.64
2022-08-17T20:32:52.767Z,66.62
2022-08-17T20:36:19.699Z,66.91
2022-08-17T20:39:34.572Z,67.17
2022-08-17T20:42:39.591Z,67.25
2022-08-17T20:45:55.710Z,67.28
2022-08-17T20:49:11.123Z,67.46
2022-08-17T20:52:56.625Z,67.62
2022-08-17T20:56:00.951Z,67.65
2022-08-17T20:59:08.814Z,67.87
2022-08-17T21:02:21.647Z,67.99
2022-08-17T21:05:35.269Z,68.14
2022-08-17T21:08:57.696Z,68.36
2022-08-17T21:12:05.741Z,68.44
2022-08-17T21:15:53.720Z,68.53
2022-08-17T21:19:26.262Z,68.45
2022-08-17T21:22:38.353Z,68.43
2022-08-17T21:25:53.185Z,68.55
2022-08-17T21:29:31.151Z,68.53
2022-08-17T21:32:38.176Z,68.55
2022-08-17T21:35:49.532Z,68.71
2022-08-17T21:39:01.500Z,68.87
2022-08-17T21:42:06.703Z,68.85
2022-08-17T21:45:18.144Z,68.80
2022-08-17T21:48:27.324Z,68.84
2022-08-17T21:51:31.141Z,68.89
2022-08-17T21:54:38.697Z,68.98
2022-08-17T21:57:53.190Z,69.00
2022-08-17T22:01:23.518Z,69.17
2022-08-17T22:04:40.195Z,69.28
2022-08-17T22:07:58.916Z,69.43
2022-08-17T22:11:02.135Z,69.56
2022-08-17T22:14:16.753Z,69.69
2022-08-17T22:17:24.999Z,69.89
2022-08-17T22:20:28.006Z,70.00
2022-08-17T22:23:55.914Z,70.13
2022-08-17T22:27:07.670Z,70.21
2022-08-17T22:30:34.268Z,70.30
2022-08-17T22:33:41.622Z,70.34
2022-08-17T22:36:44.580Z,70.44
2022-08-17T22:39:57.481Z,70.57
2022-08-17T22:43:03.626Z,70.55
2022-08-17T22:46:08.717Z,70.69
2022-08-17T22:49:11.737Z,70.74
2022-08-17T22:52:57.920Z,70.74
2022-08-17T22:56:19.524Z,70.77
2022-08-17T22:59:56.179Z,70.86
2022-08-17T23:03:12.508Z,70.97
2022-08-17T23:06:15.471Z,71.04
2022-08-17T23:09:18.341Z,71.14
2022-08-17T23:12:26.443Z,71.27
2022-08-17T23:15:33.120Z,71.33
2022-08-17T23:18:37.478Z,71.36
2022-08-17T23:21:40.442Z,71.35
2022-08-17T23:24:48.559Z,71.29
2022-08-17T23:27:51.548Z,71.31
2022-08-17T23:30:54.606Z,71.22
2022-08-17T23:33:59.230Z,71.16
2022-08-17T23:37:02.316Z,70.99
2022-08-17T23:40:05.958Z,70.90
2022-08-17T23:43:24.825Z,70.88
2022-08-17T23:46:28.800Z,70.96
2022-08-17T23:49:32.445Z,71.06
2022-08-17T23:52:37.852Z,71.14
2022-08-17T23:55:40.781Z,71.34
2022-08-17T23:58:44.827Z,71.46
